Joy — V2EI9 — position and weather

sailwx.info

Track history (hours):
 
Tides and Currents Weather Stations Pressure Air Temp Water Temp Dewpoint Dewpoint Depression Visibility Wind Speed Wind Dir Waves Ship Positions

Joy

Last reported at 2015-Mar-30 05:28 UTC. Time now 2015-Mar-31 11:20 UTC.
Position N 43°39' W 006°13'.

Length 105 m; draft 4 m.

Type: Cargo ship. MMSI: 305444000.

Date/timePositionNaut miles runAvg speedWind from/ knotsBaromVisibWave heightAir tempDewpointWater temp
2015-Mar-30 05:28N 43°39' W 006°13'8 8.0
2015-Mar-30 04:30N 43°40' W 006°02'8 7.9
2015-Mar-30 03:33N 43°41' W 005°52'8 7.5
2015-Mar-30 02:33N 43°40' W 005°42'9 8.7
2015-Mar-30 01:31N 43°38' W 005°30'12 8.5
2015-Mar-30 00:04N 43°36' W 005°13'  
2015-Mar-24 11:31N 50°32' E 000°08'8 8.1
2015-Mar-24 10:33N 50°35' E 000°19'9 9.1
2015-Mar-24 09:32N 50°37' E 000°33'1110.8
2015-Mar-24 08:33N 50°42' E 000°48'1211.9
2015-Mar-24 07:33N 50°49' E 001°04'1111.4
2015-Mar-24 06:33N 50°55' E 001°18'1010.3
2015-Mar-24 05:33N 51°03' E 001°30'8 8.4
2015-Mar-24 04:34N 51°09' E 001°39'8 7.7
2015-Mar-24 03:33N 51°14' E 001°48'8 7.7
2015-Mar-24 02:33N 51°21' E 001°54'9 8.8
2015-Mar-24 01:33N 51°28' E 002°02'1110.5
2015-Mar-24 00:33N 51°36' E 002°12'1611.9
2015-Mar-23 23:14N 51°49' E 002°28'812.0
2015-Mar-23 22:33N 51°55' E 002°37'12110.1
2015-Mar-23 10:33N 53°30' E 004°42'9 9.5
2015-Mar-23 09:33N 53°33' E 004°57'9 9.0
2015-Mar-23 08:33N 53°36' E 005°12'9 8.9
2015-Mar-23 07:33N 53°39' E 005°26'9 9.2
2015-Mar-23 06:33N 53°42' E 005°40'1010.5
2015-Mar-23 05:33N 53°45' E 005°57'4112.0
2015-Mar-23 02:10N 53°56' E 007°04'4 6.8
2015-Mar-23 01:32N 53°57' E 007°11'1010.1
2015-Mar-23 00:33N 53°60' E 007°27'10 9.7
2015-Mar-22 23:33N 54°02' E 007°43'9 9.3
2015-Mar-22 22:33N 54°01' E 007°59'10 9.0
2015-Mar-22 21:30N 54°00' E 008°15'1010.6
2015-Mar-22 20:33N 53°58' E 008°31'1312.9
2015-Mar-22 19:33N 53°50' E 008°49'1212.2
2015-Mar-22 18:33N 53°54' E 009°09'4 3.7
2015-Mar-22 17:33N 53°56' E 009°13'7 6.9
2015-Mar-22 16:33N 54°03' E 009°18'15 7.5
2015-Mar-22 14:32N 54°14' E 009°36'4 3.7
2015-Mar-22 13:31N 54°17' E 009°39'7 7.7
2015-Mar-22 12:34N 54°22' E 009°48'5 4.6
2015-Mar-22 11:34N 54°21' E 009°56'7 6.6
2015-Mar-22 10:34N 54°22' E 010°07'1 1.2
2015-Mar-22 09:34N 54°22' E 010°09'1 1.0
2015-Mar-22 08:34N 54°22' E 010°10'8 7.5
2015-Mar-22 07:34N 54°29' E 010°16'10 9.9
2015-Mar-22 06:33N 54°34' E 010°31'11 9.0
2015-Mar-22 05:17N 54°35' E 010°51'7 9.0
2015-Mar-22 04:33N 54°36' E 011°02'9 9.5
2015-Mar-22 03:33N 54°34' E 011°18'1010.2
2015-Mar-22 02:34N 54°30' E 011°34'1010.2
2015-Mar-22 01:33N 54°26' E 011°50'1010.0
2015-Mar-22 00:33N 54°27' E 012°08'1110.4
2015-Mar-21 23:32N 54°37' E 012°15'1010.5
2015-Mar-21 22:33N 54°43' E 012°29'1110.4
2015-Mar-21 21:32N 54°47' E 012°46'1210.6
2015-Mar-21 20:26N 54°47' E 013°06'910.5
2015-Mar-21 19:33N 54°47' E 013°22'1010.4
2015-Mar-21 18:32N 54°46' E 013°40'10 9.8
2015-Mar-21 17:33N 54°43' E 013°56'9 8.8
2015-Mar-21 16:30N 54°40' E 014°11'2010.5
2015-Mar-21 14:32N 54°40' E 014°46'  
Track history (hours):
 
Tides and Currents Weather Stations Pressure Air Temp Water Temp Dewpoint Dewpoint Depression Visibility Wind Speed Wind Dir Waves Ship Positions

Joy

Last reported at 2015-Mar-30 05:28 UTC. Time now 2015-Mar-31 11:20 UTC.
Position N 43°39' W 006°13'.

Length 105 m; draft 4 m.

Type: Cargo ship. MMSI: 305444000.

Date/timePositionNaut miles runAvg speedWind from/ knotsBaromVisibWave heightAir tempDewpointWater temp
2015-Mar-30 05:28N 43°39' W 006°13'8 8.0
2015-Mar-30 04:30N 43°40' W 006°02'8 7.9
2015-Mar-30 03:33N 43°41' W 005°52'8 7.5
2015-Mar-30 02:33N 43°40' W 005°42'9 8.7
2015-Mar-30 01:31N 43°38' W 005°30'12 8.5
2015-Mar-30 00:04N 43°36' W 005°13'  
2015-Mar-24 11:31N 50°32' E 000°08'8 8.1
2015-Mar-24 10:33N 50°35' E 000°19'9 9.1
2015-Mar-24 09:32N 50°37' E 000°33'1110.8
2015-Mar-24 08:33N 50°42' E 000°48'1211.9
2015-Mar-24 07:33N 50°49' E 001°04'1111.4
2015-Mar-24 06:33N 50°55' E 001°18'1010.3
2015-Mar-24 05:33N 51°03' E 001°30'8 8.4
2015-Mar-24 04:34N 51°09' E 001°39'8 7.7
2015-Mar-24 03:33N 51°14' E 001°48'8 7.7
2015-Mar-24 02:33N 51°21' E 001°54'9 8.8
2015-Mar-24 01:33N 51°28' E 002°02'1110.5
2015-Mar-24 00:33N 51°36' E 002°12'1611.9
2015-Mar-23 23:14N 51°49' E 002°28'812.0
2015-Mar-23 22:33N 51°55' E 002°37'12110.1
2015-Mar-23 10:33N 53°30' E 004°42'9 9.5
2015-Mar-23 09:33N 53°33' E 004°57'9 9.0
2015-Mar-23 08:33N 53°36' E 005°12'9 8.9
2015-Mar-23 07:33N 53°39' E 005°26'9 9.2
2015-Mar-23 06:33N 53°42' E 005°40'1010.5
2015-Mar-23 05:33N 53°45' E 005°57'4112.0
2015-Mar-23 02:10N 53°56' E 007°04'4 6.8
2015-Mar-23 01:32N 53°57' E 007°11'1010.1
2015-Mar-23 00:33N 53°60' E 007°27'10 9.7
2015-Mar-22 23:33N 54°02' E 007°43'9 9.3
2015-Mar-22 22:33N 54°01' E 007°59'10 9.0
2015-Mar-22 21:30N 54°00' E 008°15'1010.6
2015-Mar-22 20:33N 53°58' E 008°31'1312.9
2015-Mar-22 19:33N 53°50' E 008°49'1212.2
2015-Mar-22 18:33N 53°54' E 009°09'4 3.7
2015-Mar-22 17:33N 53°56' E 009°13'7 6.9
2015-Mar-22 16:33N 54°03' E 009°18'15 7.5
2015-Mar-22 14:32N 54°14' E 009°36'4 3.7
2015-Mar-22 13:31N 54°17' E 009°39'7 7.7
2015-Mar-22 12:34N 54°22' E 009°48'5 4.6
2015-Mar-22 11:34N 54°21' E 009°56'7 6.6
2015-Mar-22 10:34N 54°22' E 010°07'1 1.2
2015-Mar-22 09:34N 54°22' E 010°09'1 1.0
2015-Mar-22 08:34N 54°22' E 010°10'8 7.5
2015-Mar-22 07:34N 54°29' E 010°16'10 9.9
2015-Mar-22 06:33N 54°34' E 010°31'11 9.0
2015-Mar-22 05:17N 54°35' E 010°51'7 9.0
2015-Mar-22 04:33N 54°36' E 011°02'9 9.5
2015-Mar-22 03:33N 54°34' E 011°18'1010.2
2015-Mar-22 02:34N 54°30' E 011°34'1010.2
2015-Mar-22 01:33N 54°26' E 011°50'1010.0
2015-Mar-22 00:33N 54°27' E 012°08'1110.4
2015-Mar-21 23:32N 54°37' E 012°15'1010.5
2015-Mar-21 22:33N 54°43' E 012°29'1110.4
2015-Mar-21 21:32N 54°47' E 012°46'1210.6
2015-Mar-21 20:26N 54°47' E 013°06'910.5
2015-Mar-21 19:33N 54°47' E 013°22'1010.4
2015-Mar-21 18:32N 54°46' E 013°40'10 9.8
2015-Mar-21 17:33N 54°43' E 013°56'9 8.8
2015-Mar-21 16:30N 54°40' E 014°11'2010.5
2015-Mar-21 14:32N 54°40' E 014°46'  

Dump ship's entire track history